sensor_id;sensor_type;location;lat;lon;timestamp;P1;durP1;ratioP1;P2;durP2;ratioP2
71773;SDS011;59607;52.130;5.430;2022-07-03T00:01:52;2.70;;;2.10;;
71773;SDS011;59607;52.130;5.430;2022-07-03T00:04:18;3.30;;;1.50;;
71773;SDS011;59607;52.130;5.430;2022-07-03T00:06:46;3.35;;;1.67;;
71773;SDS011;59607;52.130;5.430;2022-07-03T00:09:13;4.32;;;1.67;;
71773;SDS011;59607;52.130;5.430;2022-07-03T00:11:40;2.58;;;1.60;;
71773;SDS011;59607;52.130;5.430;2022-07-03T00:14:07;2.27;;;1.57;;
71773;SDS011;59607;52.130;5.430;2022-07-03T00:16:33;2.65;;;1.67;;
71773;SDS011;59607;52.130;5.430;2022-07-03T00:19:00;3.95;;;2.10;;
71773;SDS011;59607;52.130;5.430;2022-07-03T00:21:28;4.20;;;1.70;;
71773;SDS011;59607;52.130;5.430;2022-07-03T00:24:04;3.40;;;1.63;;
71773;SDS011;59607;52.130;5.430;2022-07-03T00:26:37;2.63;;;1.80;;
71773;SDS011;59607;52.130;5.430;2022-07-03T00:29:05;2.67;;;2.00;;
71773;SDS011;59607;52.130;5.430;2022-07-03T00:31:35;1.45;;;1.30;;
71773;SDS011;59607;52.130;5.430;2022-07-03T00:34:01;2.85;;;1.75;;
71773;SDS011;59607;52.130;5.430;2022-07-03T00:36:37;2.72;;;1.77;;
71773;SDS011;59607;52.130;5.430;2022-07-03T00:39:04;3.40;;;1.80;;
71773;SDS011;59607;52.130;5.430;2022-07-03T00:41:32;3.33;;;1.15;;
71773;SDS011;59607;52.130;5.430;2022-07-03T00:44:00;2.20;;;1.60;;
71773;SDS011;59607;52.130;5.430;2022-07-03T00:46:27;1.95;;;1.30;;
71773;SDS011;59607;52.130;5.430;2022-07-03T00:48:55;2.88;;;1.40;;
71773;SDS011;59607;52.130;5.430;2022-07-03T00:51:24;3.13;;;1.37;;
71773;SDS011;59607;52.130;5.430;2022-07-03T00:53:53;2.70;;;1.13;;
71773;SDS011;59607;52.130;5.430;2022-07-03T00:56:27;1.45;;;1.02;;
71773;SDS011;59607;52.130;5.430;2022-07-03T00:58:56;1.40;;;1.02;;
71773;SDS011;59607;52.130;5.430;2022-07-03T01:01:32;1.20;;;0.98;;
71773;SDS011;59607;52.130;5.430;2022-07-03T01:04:10;2.27;;;1.17;;
71773;SDS011;59607;52.130;5.430;2022-07-03T01:09:37;2.78;;;1.48;;
71773;SDS011;59607;52.130;5.430;2022-07-03T01:12:14;1.58;;;1.10;;
71773;SDS011;59607;52.130;5.430;2022-07-03T01:14:58;2.05;;;1.40;;
71773;SDS011;59607;52.130;5.430;2022-07-03T01:17:39;1.90;;;0.83;;
71773;SDS011;59607;52.130;5.430;2022-07-03T01:20:11;2.38;;;1.13;;
71773;SDS011;59607;52.130;5.430;2022-07-03T01:22:45;3.17;;;1.50;;
71773;SDS011;59607;52.130;5.430;2022-07-03T01:30:39;1.40;;;1.20;;
71773;SDS011;59607;52.130;5.430;2022-07-03T01:33:13;3.58;;;1.20;;
71773;SDS011;59607;52.130;5.430;2022-07-03T01:35:47;1.65;;;1.38;;
71773;SDS011;59607;52.130;5.430;2022-07-03T01:38:23;1.40;;;1.00;;
71773;SDS011;59607;52.130;5.430;2022-07-03T01:40:54;2.55;;;1.50;;
71773;SDS011;59607;52.130;5.430;2022-07-03T01:43:25;1.63;;;1.20;;
71773;SDS011;59607;52.130;5.430;2022-07-03T01:45:56;4.03;;;1.17;;
71773;SDS011;59607;52.130;5.430;2022-07-03T01:48:25;3.28;;;1.48;;
71773;SDS011;59607;52.130;5.430;2022-07-03T01:50:52;1.98;;;1.25;;
71773;SDS011;59607;52.130;5.430;2022-07-03T01:53:20;1.73;;;1.30;;
71773;SDS011;59607;52.130;5.430;2022-07-03T01:55:51;1.90;;;1.30;;
71773;SDS011;59607;52.130;5.430;2022-07-03T01:58:21;3.33;;;1.23;;
71773;SDS011;59607;52.130;5.430;2022-07-03T02:00:55;3.58;;;1.55;;
71773;SDS011;59607;52.130;5.430;2022-07-03T02:03:33;2.35;;;1.13;;
71773;SDS011;59607;52.130;5.430;2022-07-03T02:08:53;1.73;;;1.13;;
71773;SDS011;59607;52.130;5.430;2022-07-03T02:11:48;2.42;;;1.33;;
71773;SDS011;59607;52.130;5.430;2022-07-03T02:14:19;4.68;;;1.38;;
71773;SDS011;59607;52.130;5.430;2022-07-03T02:19:34;1.65;;;1.52;;
71773;SDS011;59607;52.130;5.430;2022-07-03T02:22:26;2.17;;;1.20;;
71773;SDS011;59607;52.130;5.430;2022-07-03T02:24:59;2.80;;;1.27;;
71773;SDS011;59607;52.130;5.430;2022-07-03T02:27:31;2.45;;;1.58;;
71773;SDS011;59607;52.130;5.430;2022-07-03T02:30:05;3.83;;;1.75;;
71773;SDS011;59607;52.130;5.430;2022-07-03T02:32:36;1.52;;;1.30;;
71773;SDS011;59607;52.130;5.430;2022-07-03T02:35:08;1.50;;;1.30;;
71773;SDS011;59607;52.130;5.430;2022-07-03T02:37:39;1.10;;;1.00;;
71773;SDS011;59607;52.130;5.430;2022-07-03T02:40:16;1.88;;;1.58;;
71773;SDS011;59607;52.130;5.430;2022-07-03T02:48:18;2.53;;;1.40;;
71773;SDS011;59607;52.130;5.430;2022-07-03T02:50:54;2.13;;;1.38;;
71773;SDS011;59607;52.130;5.430;2022-07-03T02:53:30;5.22;;;1.67;;
71773;SDS011;59607;52.130;5.430;2022-07-03T02:56:07;2.03;;;1.40;;
71773;SDS011;59607;52.130;5.430;2022-07-03T03:03:52;1.73;;;1.55;;
71773;SDS011;59607;52.130;5.430;2022-07-03T03:06:27;3.78;;;1.60;;
71773;SDS011;59607;52.130;5.430;2022-07-03T03:08:59;5.38;;;2.25;;
71773;SDS011;59607;52.130;5.430;2022-07-03T03:11:32;4.05;;;1.33;;
71773;SDS011;59607;52.130;5.430;2022-07-03T03:14:08;1.43;;;1.30;;
71773;SDS011;59607;52.130;5.430;2022-07-03T03:16:37;2.60;;;1.55;;
71773;SDS011;59607;52.130;5.430;2022-07-03T03:19:11;2.65;;;1.40;;
71773;SDS011;59607;52.130;5.430;2022-07-03T03:21:42;4.13;;;1.60;;
71773;SDS011;59607;52.130;5.430;2022-07-03T03:24:18;2.55;;;1.40;;
71773;SDS011;59607;52.130;5.430;2022-07-03T03:26:44;4.03;;;1.50;;
71773;SDS011;59607;52.130;5.430;2022-07-03T03:29:11;2.67;;;1.48;;
71773;SDS011;59607;52.130;5.430;2022-07-03T03:31:38;2.22;;;1.70;;
71773;SDS011;59607;52.130;5.430;2022-07-03T03:34:04;1.65;;;1.38;;
71773;SDS011;59607;52.130;5.430;2022-07-03T03:36:32;3.13;;;1.83;;
71773;SDS011;59607;52.130;5.430;2022-07-03T03:38:59;2.30;;;1.60;;
71773;SDS011;59607;52.130;5.430;2022-07-03T03:41:25;2.30;;;1.60;;
71773;SDS011;59607;52.130;5.430;2022-07-03T03:43:52;3.38;;;1.75;;
71773;SDS011;59607;52.130;5.430;2022-07-03T03:46:19;1.95;;;1.40;;
71773;SDS011;59607;52.130;5.430;2022-07-03T03:48:45;2.58;;;1.50;;
71773;SDS011;59607;52.130;5.430;2022-07-03T03:51:13;1.80;;;1.43;;
71773;SDS011;59607;52.130;5.430;2022-07-03T03:53:40;3.80;;;1.65;;
71773;SDS011;59607;52.130;5.430;2022-07-03T03:56:11;1.80;;;1.50;;
71773;SDS011;59607;52.130;5.430;2022-07-03T03:58:41;4.05;;;1.60;;
71773;SDS011;59607;52.130;5.430;2022-07-03T04:01:09;1.63;;;1.50;;
71773;SDS011;59607;52.130;5.430;2022-07-03T04:03:37;2.70;;;1.30;;
71773;SDS011;59607;52.130;5.430;2022-07-03T04:06:05;2.67;;;1.48;;
71773;SDS011;59607;52.130;5.430;2022-07-03T04:08:31;3.38;;;1.50;;
71773;SDS011;59607;52.130;5.430;2022-07-03T04:10:58;2.75;;;1.52;;
71773;SDS011;59607;52.130;5.430;2022-07-03T04:13:25;2.95;;;1.65;;
71773;SDS011;59607;52.130;5.430;2022-07-03T04:15:52;2.20;;;1.40;;
71773;SDS011;59607;52.130;5.430;2022-07-03T04:18:19;1.67;;;1.17;;
71773;SDS011;59607;52.130;5.430;2022-07-03T04:20:46;1.60;;;1.40;;
71773;SDS011;59607;52.130;5.430;2022-07-03T04:23:12;4.30;;;1.20;;
71773;SDS011;59607;52.130;5.430;2022-07-03T04:25:39;2.13;;;1.50;;
71773;SDS011;59607;52.130;5.430;2022-07-03T04:28:06;3.97;;;1.43;;
71773;SDS011;59607;52.130;5.430;2022-07-03T04:30:45;4.28;;;1.33;;
71773;SDS011;59607;52.130;5.430;2022-07-03T04:33:11;2.78;;;1.25;;
71773;SDS011;59607;52.130;5.430;2022-07-03T04:35:38;3.88;;;1.25;;
71773;SDS011;59607;52.130;5.430;2022-07-03T04:38:05;2.13;;;1.02;;
71773;SDS011;59607;52.130;5.430;2022-07-03T04:40:31;3.87;;;1.13;;
71773;SDS011;59607;52.130;5.430;2022-07-03T04:42:58;1.90;;;1.27;;
71773;SDS011;59607;52.130;5.430;2022-07-03T04:45:24;2.40;;;1.17;;
71773;SDS011;59607;52.130;5.430;2022-07-03T04:47:50;3.40;;;1.30;;
71773;SDS011;59607;52.130;5.430;2022-07-03T04:50:17;1.60;;;1.20;;
71773;SDS011;59607;52.130;5.430;2022-07-03T04:52:43;1.50;;;1.00;;
71773;SDS011;59607;52.130;5.430;2022-07-03T04:55:10;2.22;;;1.20;;
71773;SDS011;59607;52.130;5.430;2022-07-03T04:57:37;1.83;;;1.23;;
71773;SDS011;59607;52.130;5.430;2022-07-03T05:00:04;1.67;;;1.50;;
71773;SDS011;59607;52.130;5.430;2022-07-03T05:02:31;2.83;;;1.30;;
71773;SDS011;59607;52.130;5.430;2022-07-03T05:04:58;1.83;;;1.27;;
71773;SDS011;59607;52.130;5.430;2022-07-03T05:07:24;1.88;;;1.20;;
71773;SDS011;59607;52.130;5.430;2022-07-03T05:09:52;2.25;;;1.27;;
71773;SDS011;59607;52.130;5.430;2022-07-03T05:12:18;2.17;;;1.27;;
71773;SDS011;59607;52.130;5.430;2022-07-03T05:14:45;2.83;;;1.98;;
71773;SDS011;59607;52.130;5.430;2022-07-03T05:17:11;1.60;;;1.50;;
71773;SDS011;59607;52.130;5.430;2022-07-03T05:19:37;2.42;;;1.33;;
71773;SDS011;59607;52.130;5.430;2022-07-03T05:22:04;1.70;;;1.60;;
71773;SDS011;59607;52.130;5.430;2022-07-03T05:24:31;2.03;;;1.20;;
71773;SDS011;59607;52.130;5.430;2022-07-03T05:26:57;2.75;;;1.50;;
71773;SDS011;59607;52.130;5.430;2022-07-03T05:29:24;2.00;;;1.53;;
71773;SDS011;59607;52.130;5.430;2022-07-03T05:31:50;2.05;;;1.25;;
71773;SDS011;59607;52.130;5.430;2022-07-03T05:34:17;1.80;;;1.20;;
71773;SDS011;59607;52.130;5.430;2022-07-03T05:36:43;1.88;;;1.00;;
71773;SDS011;59607;52.130;5.430;2022-07-03T05:39:10;3.45;;;1.23;;
71773;SDS011;59607;52.130;5.430;2022-07-03T05:41:54;1.07;;;0.77;;
71773;SDS011;59607;52.130;5.430;2022-07-03T05:44:22;3.08;;;0.90;;
71773;SDS011;59607;52.130;5.430;2022-07-03T05:46:48;1.65;;;1.00;;
71773;SDS011;59607;52.130;5.430;2022-07-03T05:49:15;2.00;;;0.68;;
71773;SDS011;59607;52.130;5.430;2022-07-03T05:51:41;2.17;;;0.85;;
71773;SDS011;59607;52.130;5.430;2022-07-03T05:54:09;2.43;;;0.60;;
71773;SDS011;59607;52.130;5.430;2022-07-03T05:56:35;2.75;;;0.75;;
71773;SDS011;59607;52.130;5.430;2022-07-03T05:59:02;2.63;;;0.80;;
71773;SDS011;59607;52.130;5.430;2022-07-03T06:01:28;2.10;;;0.60;;
71773;SDS011;59607;52.130;5.430;2022-07-03T06:03:55;3.50;;;0.50;;
71773;SDS011;59607;52.130;5.430;2022-07-03T06:06:22;1.97;;;0.40;;
71773;SDS011;59607;52.130;5.430;2022-07-03T06:08:48;3.40;;;0.88;;
71773;SDS011;59607;52.130;5.430;2022-07-03T06:11:14;1.67;;;0.70;;
71773;SDS011;59607;52.130;5.430;2022-07-03T06:13:41;2.47;;;0.55;;
71773;SDS011;59607;52.130;5.430;2022-07-03T06:16:07;5.65;;;0.90;;
71773;SDS011;59607;52.130;5.430;2022-07-03T06:18:34;1.37;;;0.40;;
71773;SDS011;59607;52.130;5.430;2022-07-03T06:21:01;1.50;;;0.60;;
71773;SDS011;59607;52.130;5.430;2022-07-03T06:23:27;1.73;;;0.52;;
71773;SDS011;59607;52.130;5.430;2022-07-03T06:26:14;2.00;;;0.60;;
71773;SDS011;59607;52.130;5.430;2022-07-03T06:28:41;2.47;;;0.50;;
71773;SDS011;59607;52.130;5.430;2022-07-03T06:31:08;2.17;;;0.67;;
71773;SDS011;59607;52.130;5.430;2022-07-03T06:33:35;1.98;;;0.50;;
71773;SDS011;59607;52.130;5.430;2022-07-03T06:36:02;2.63;;;0.90;;
71773;SDS011;59607;52.130;5.430;2022-07-03T06:38:28;1.55;;;0.50;;
71773;SDS011;59607;52.130;5.430;2022-07-03T06:40:55;2.53;;;0.60;;
71773;SDS011;59607;52.130;5.430;2022-07-03T06:43:22;1.97;;;0.50;;
71773;SDS011;59607;52.130;5.430;2022-07-03T06:45:48;1.50;;;0.47;;
71773;SDS011;59607;52.130;5.430;2022-07-03T06:48:15;3.28;;;0.60;;
71773;SDS011;59607;52.130;5.430;2022-07-03T06:50:41;1.92;;;0.35;;
71773;SDS011;59607;52.130;5.430;2022-07-03T06:53:08;2.65;;;0.40;;
71773;SDS011;59607;52.130;5.430;2022-07-03T06:55:34;4.63;;;0.60;;
71773;SDS011;59607;52.130;5.430;2022-07-03T06:58:01;2.88;;;0.50;;
71773;SDS011;59607;52.130;5.430;2022-07-03T07:00:27;3.60;;;0.45;;
71773;SDS011;59607;52.130;5.430;2022-07-03T07:02:54;2.55;;;0.43;;
71773;SDS011;59607;52.130;5.430;2022-07-03T07:05:25;1.92;;;0.50;;
71773;SDS011;59607;52.130;5.430;2022-07-03T07:07:52;2.70;;;0.40;;
71773;SDS011;59607;52.130;5.430;2022-07-03T07:10:18;3.83;;;0.50;;
71773;SDS011;59607;52.130;5.430;2022-07-03T07:12:44;4.50;;;0.60;;
71773;SDS011;59607;52.130;5.430;2022-07-03T07:15:11;4.72;;;0.52;;
71773;SDS011;59607;52.130;5.430;2022-07-03T07:17:37;1.52;;;0.50;;
71773;SDS011;59607;52.130;5.430;2022-07-03T07:20:04;5.63;;;0.80;;
71773;SDS011;59607;52.130;5.430;2022-07-03T07:22:31;3.38;;;0.50;;
71773;SDS011;59607;52.130;5.430;2022-07-03T07:24:58;1.83;;;0.65;;
71773;SDS011;59607;52.130;5.430;2022-07-03T07:27:24;3.83;;;0.55;;
71773;SDS011;59607;52.130;5.430;2022-07-03T07:29:51;2.53;;;0.45;;
71773;SDS011;59607;52.130;5.430;2022-07-03T07:32:17;2.87;;;0.33;;
71773;SDS011;59607;52.130;5.430;2022-07-03T07:34:44;2.55;;;0.40;;
71773;SDS011;59607;52.130;5.430;2022-07-03T07:37:10;3.45;;;0.55;;
71773;SDS011;59607;52.130;5.430;2022-07-03T07:39:36;2.15;;;0.30;;
71773;SDS011;59607;52.130;5.430;2022-07-03T07:42:03;1.42;;;0.35;;
71773;SDS011;59607;52.130;5.430;2022-07-03T07:44:30;2.03;;;0.33;;
71773;SDS011;59607;52.130;5.430;2022-07-03T07:46:56;4.80;;;0.93;;
71773;SDS011;59607;52.130;5.430;2022-07-03T07:49:23;2.10;;;0.63;;
71773;SDS011;59607;52.130;5.430;2022-07-03T07:51:49;2.67;;;0.30;;
71773;SDS011;59607;52.130;5.430;2022-07-03T07:54:16;2.00;;;0.40;;
71773;SDS011;59607;52.130;5.430;2022-07-03T07:56:42;2.40;;;0.50;;
71773;SDS011;59607;52.130;5.430;2022-07-03T07:59:08;2.20;;;0.40;;
71773;SDS011;59607;52.130;5.430;2022-07-03T08:01:35;1.55;;;0.38;;
71773;SDS011;59607;52.130;5.430;2022-07-03T08:04:20;2.92;;;0.70;;
71773;SDS011;59607;52.130;5.430;2022-07-03T08:07:04;2.60;;;0.57;;
71773;SDS011;59607;52.130;5.430;2022-07-03T08:09:43;1.80;;;0.47;;
71773;SDS011;59607;52.130;5.430;2022-07-03T08:15:57;0.90;;;0.30;;
71773;SDS011;59607;52.130;5.430;2022-07-03T08:22:04;1.52;;;0.40;;
71773;SDS011;59607;52.130;5.430;2022-07-03T08:28:18;1.27;;;0.30;;
71773;SDS011;59607;52.130;5.430;2022-07-03T08:30:45;1.30;;;0.30;;
71773;SDS011;59607;52.130;5.430;2022-07-03T08:33:11;5.10;;;0.32;;
71773;SDS011;59607;52.130;5.430;2022-07-03T08:35:38;2.63;;;0.30;;
71773;SDS011;59607;52.130;5.430;2022-07-03T08:38:04;2.77;;;0.60;;
71773;SDS011;59607;52.130;5.430;2022-07-03T08:40:31;2.20;;;0.40;;
71773;SDS011;59607;52.130;5.430;2022-07-03T08:45:54;2.10;;;0.80;;
71773;SDS011;59607;52.130;5.430;2022-07-03T08:48:23;1.98;;;0.70;;
71773;SDS011;59607;52.130;5.430;2022-07-03T08:50:51;2.03;;;0.40;;
71773;SDS011;59607;52.130;5.430;2022-07-03T08:53:18;3.17;;;0.90;;
71773;SDS011;59607;52.130;5.430;2022-07-03T08:55:46;3.65;;;0.55;;
71773;SDS011;59607;52.130;5.430;2022-07-03T08:58:14;1.70;;;0.50;;
71773;SDS011;59607;52.130;5.430;2022-07-03T09:00:41;5.30;;;1.17;;
71773;SDS011;59607;52.130;5.430;2022-07-03T09:03:11;1.50;;;0.40;;
71773;SDS011;59607;52.130;5.430;2022-07-03T09:05:40;1.45;;;0.30;;
71773;SDS011;59607;52.130;5.430;2022-07-03T09:08:08;2.10;;;0.50;;
71773;SDS011;59607;52.130;5.430;2022-07-03T09:10:35;1.30;;;0.40;;
71773;SDS011;59607;52.130;5.430;2022-07-03T09:13:02;1.52;;;0.40;;
71773;SDS011;59607;52.130;5.430;2022-07-03T09:15:29;1.77;;;0.30;;
71773;SDS011;59607;52.130;5.430;2022-07-03T09:18:05;5.25;;;0.75;;
71773;SDS011;59607;52.130;5.430;2022-07-03T09:20:34;2.35;;;0.50;;
71773;SDS011;59607;52.130;5.430;2022-07-03T09:23:19;3.17;;;0.60;;
71773;SDS011;59607;52.130;5.430;2022-07-03T09:25:53;1.23;;;0.60;;
71773;SDS011;59607;52.130;5.430;2022-07-03T09:28:21;2.33;;;0.40;;
71773;SDS011;59607;52.130;5.430;2022-07-03T09:31:06;2.17;;;0.40;;
71773;SDS011;59607;52.130;5.430;2022-07-03T09:33:32;3.08;;;0.65;;
71773;SDS011;59607;52.130;5.430;2022-07-03T09:35:59;1.15;;;0.60;;
71773;SDS011;59607;52.130;5.430;2022-07-03T09:38:26;2.28;;;0.30;;
71773;SDS011;59607;52.130;5.430;2022-07-03T09:40:53;1.63;;;0.40;;
71773;SDS011;59607;52.130;5.430;2022-07-03T09:43:22;2.05;;;0.35;;
71773;SDS011;59607;52.130;5.430;2022-07-03T09:46:01;1.67;;;0.40;;
71773;SDS011;59607;52.130;5.430;2022-07-03T09:48:29;3.28;;;0.40;;
71773;SDS011;59607;52.130;5.430;2022-07-03T09:51:34;2.13;;;0.40;;
71773;SDS011;59607;52.130;5.430;2022-07-03T09:56:25;3.20;;;0.50;;
71773;SDS011;59607;52.130;5.430;2022-07-03T09:59:04;2.00;;;0.38;;
71773;SDS011;59607;52.130;5.430;2022-07-03T10:01:38;1.55;;;0.50;;
71773;SDS011;59607;52.130;5.430;2022-07-03T10:09:27;2.35;;;0.77;;
71773;SDS011;59607;52.130;5.430;2022-07-03T10:11:56;1.95;;;0.55;;
71773;SDS011;59607;52.130;5.430;2022-07-03T10:14:25;1.27;;;0.40;;
71773;SDS011;59607;52.130;5.430;2022-07-03T10:16:53;1.95;;;0.30;;
71773;SDS011;59607;52.130;5.430;2022-07-03T10:19:25;0.83;;;0.30;;
71773;SDS011;59607;52.130;5.430;2022-07-03T10:21:56;2.70;;;0.30;;
71773;SDS011;59607;52.130;5.430;2022-07-03T10:24:25;1.15;;;0.32;;
71773;SDS011;59607;52.130;5.430;2022-07-03T10:26:53;0.60;;;0.30;;
71773;SDS011;59607;52.130;5.430;2022-07-03T10:29:21;2.88;;;0.50;;
71773;SDS011;59607;52.130;5.430;2022-07-03T10:31:54;1.00;;;0.40;;
71773;SDS011;59607;52.130;5.430;2022-07-03T10:34:22;0.85;;;0.20;;
71773;SDS011;59607;52.130;5.430;2022-07-03T10:37:00;2.70;;;1.00;;
71773;SDS011;59607;52.130;5.430;2022-07-03T10:42:11;1.00;;;0.50;;
71773;SDS011;59607;52.130;5.430;2022-07-03T10:47:44;1.55;;;0.65;;
71773;SDS011;59607;52.130;5.430;2022-07-03T10:50:13;1.75;;;1.05;;
71773;SDS011;59607;52.130;5.430;2022-07-03T10:52:46;3.10;;;1.42;;
71773;SDS011;59607;52.130;5.430;2022-07-03T10:55:14;2.33;;;0.40;;
71773;SDS011;59607;52.130;5.430;2022-07-03T11:00:53;2.85;;;0.60;;
71773;SDS011;59607;52.130;5.430;2022-07-03T11:09:08;2.60;;;0.60;;
71773;SDS011;59607;52.130;5.430;2022-07-03T11:14:21;1.20;;;0.60;;
71773;SDS011;59607;52.130;5.430;2022-07-03T11:16:49;1.83;;;1.00;;
71773;SDS011;59607;52.130;5.430;2022-07-03T11:19:46;2.47;;;0.50;;
71773;SDS011;59607;52.130;5.430;2022-07-03T11:22:53;0.90;;;0.60;;
71773;SDS011;59607;52.130;5.430;2022-07-03T11:25:25;1.87;;;0.60;;
71773;SDS011;59607;52.130;5.430;2022-07-03T11:27:52;2.80;;;0.60;;
71773;SDS011;59607;52.130;5.430;2022-07-03T11:30:34;1.90;;;0.45;;
71773;SDS011;59607;52.130;5.430;2022-07-03T11:33:01;1.38;;;0.40;;
71773;SDS011;59607;52.130;5.430;2022-07-03T11:39:15;2.10;;;0.60;;
71773;SDS011;59607;52.130;5.430;2022-07-03T11:45:27;2.22;;;0.43;;
71773;SDS011;59607;52.130;5.430;2022-07-03T11:51:12;2.47;;;0.60;;
71773;SDS011;59607;52.130;5.430;2022-07-03T11:53:57;1.57;;;0.40;;
71773;SDS011;59607;52.130;5.430;2022-07-03T11:56:24;1.23;;;0.40;;
71773;SDS011;59607;52.130;5.430;2022-07-03T11:58:51;1.95;;;0.40;;
71773;SDS011;59607;52.130;5.430;2022-07-03T12:05:15;1.90;;;0.60;;
71773;SDS011;59607;52.130;5.430;2022-07-03T12:08:01;1.67;;;0.53;;
71773;SDS011;59607;52.130;5.430;2022-07-03T12:10:37;2.53;;;0.55;;
71773;SDS011;59607;52.130;5.430;2022-07-03T12:13:18;2.33;;;0.77;;
71773;SDS011;59607;52.130;5.430;2022-07-03T12:15:48;1.15;;;0.35;;
71773;SDS011;59607;52.130;5.430;2022-07-03T12:18:15;1.50;;;0.40;;
71773;SDS011;59607;52.130;5.430;2022-07-03T12:20:42;1.33;;;0.40;;
71773;SDS011;59607;52.130;5.430;2022-07-03T12:23:08;1.67;;;0.40;;
71773;SDS011;59607;52.130;5.430;2022-07-03T12:25:37;1.40;;;0.45;;
71773;SDS011;59607;52.130;5.430;2022-07-03T12:28:06;2.80;;;0.40;;
71773;SDS011;59607;52.130;5.430;2022-07-03T12:30:35;0.90;;;0.40;;
71773;SDS011;59607;52.130;5.430;2022-07-03T12:33:02;2.37;;;0.40;;
71773;SDS011;59607;52.130;5.430;2022-07-03T12:35:30;1.15;;;0.43;;
71773;SDS011;59607;52.130;5.430;2022-07-03T12:37:56;4.90;;;0.70;;
71773;SDS011;59607;52.130;5.430;2022-07-03T12:40:23;1.27;;;0.50;;
71773;SDS011;59607;52.130;5.430;2022-07-03T12:42:51;1.67;;;0.50;;
71773;SDS011;59607;52.130;5.430;2022-07-03T12:45:19;1.60;;;0.50;;
71773;SDS011;59607;52.130;5.430;2022-07-03T12:47:57;1.35;;;0.55;;
71773;SDS011;59607;52.130;5.430;2022-07-03T12:50:24;2.05;;;0.57;;
71773;SDS011;59607;52.130;5.430;2022-07-03T12:52:51;2.17;;;0.82;;
71773;SDS011;59607;52.130;5.430;2022-07-03T13:09:53;1.80;;;0.40;;
71773;SDS011;59607;52.130;5.430;2022-07-03T13:12:20;1.35;;;0.57;;
71773;SDS011;59607;52.130;5.430;2022-07-03T13:18:38;3.90;;;0.50;;
71773;SDS011;59607;52.130;5.430;2022-07-03T13:22:33;1.42;;;0.40;;
71773;SDS011;59607;52.130;5.430;2022-07-03T13:24:59;2.28;;;0.30;;
71773;SDS011;59607;52.130;5.430;2022-07-03T13:27:26;1.45;;;0.50;;
71773;SDS011;59607;52.130;5.430;2022-07-03T13:33:40;1.73;;;0.50;;
71773;SDS011;59607;52.130;5.430;2022-07-03T13:43:34;1.67;;;0.40;;
71773;SDS011;59607;52.130;5.430;2022-07-03T13:49:47;0.73;;;0.30;;
71773;SDS011;59607;52.130;5.430;2022-07-03T13:56:01;2.05;;;0.40;;
71773;SDS011;59607;52.130;5.430;2022-07-03T14:12:27;1.58;;;0.30;;
71773;SDS011;59607;52.130;5.430;2022-07-03T14:14:54;0.95;;;0.35;;
71773;SDS011;59607;52.130;5.430;2022-07-03T14:21:08;1.45;;;0.30;;
71773;SDS011;59607;52.130;5.430;2022-07-03T14:27:21;1.33;;;0.40;;
71773;SDS011;59607;52.130;5.430;2022-07-03T14:34:17;2.47;;;0.37;;
71773;SDS011;59607;52.130;5.430;2022-07-03T14:40:31;1.77;;;0.55;;
71773;SDS011;59607;52.130;5.430;2022-07-03T14:46:45;1.98;;;0.40;;
71773;SDS011;59607;52.130;5.430;2022-07-03T14:52:58;1.23;;;0.32;;
71773;SDS011;59607;52.130;5.430;2022-07-03T15:12:59;2.22;;;0.30;;
71773;SDS011;59607;52.130;5.430;2022-07-03T15:19:14;1.58;;;0.50;;
71773;SDS011;59607;52.130;5.430;2022-07-03T15:25:23;1.52;;;0.65;;
71773;SDS011;59607;52.130;5.430;2022-07-03T15:31:37;1.05;;;0.30;;
71773;SDS011;59607;52.130;5.430;2022-07-03T15:51:36;1.67;;;0.40;;
71773;SDS011;59607;52.130;5.430;2022-07-03T15:58:40;2.65;;;0.55;;
71773;SDS011;59607;52.130;5.430;2022-07-03T16:01:25;1.13;;;0.50;;
71773;SDS011;59607;52.130;5.430;2022-07-03T16:12:36;1.97;;;0.30;;
71773;SDS011;59607;52.130;5.430;2022-07-03T16:21:44;2.08;;;0.35;;
71773;SDS011;59607;52.130;5.430;2022-07-03T16:30:56;0.93;;;0.30;;
71773;SDS011;59607;52.130;5.430;2022-07-03T16:33:27;1.23;;;0.40;;
71773;SDS011;59607;52.130;5.430;2022-07-03T16:36:03;1.77;;;0.55;;
71773;SDS011;59607;52.130;5.430;2022-07-03T16:38:36;1.15;;;0.40;;
71773;SDS011;59607;52.130;5.430;2022-07-03T16:41:06;1.33;;;0.30;;
71773;SDS011;59607;52.130;5.430;2022-07-03T16:47:23;1.65;;;0.50;;
71773;SDS011;59607;52.130;5.430;2022-07-03T16:53:32;2.55;;;0.40;;
71773;SDS011;59607;52.130;5.430;2022-07-03T16:59:42;1.42;;;0.43;;
71773;SDS011;59607;52.130;5.430;2022-07-03T17:28:49;2.25;;;0.40;;
71773;SDS011;59607;52.130;5.430;2022-07-03T17:32:08;0.97;;;0.30;;
71773;SDS011;59607;52.130;5.430;2022-07-03T17:38:00;2.17;;;0.32;;
71773;SDS011;59607;52.130;5.430;2022-07-03T17:40:26;1.27;;;0.30;;
71773;SDS011;59607;52.130;5.430;2022-07-03T17:45:46;1.70;;;0.27;;
71773;SDS011;59607;52.130;5.430;2022-07-03T17:48:13;2.22;;;0.38;;
71773;SDS011;59607;52.130;5.430;2022-07-03T17:54:28;4.40;;;0.43;;
71773;SDS011;59607;52.130;5.430;2022-07-03T18:00:42;3.47;;;0.30;;
71773;SDS011;59607;52.130;5.430;2022-07-03T18:06:56;1.05;;;0.68;;
71773;SDS011;59607;52.130;5.430;2022-07-03T18:24:19;1.13;;;0.40;;
71773;SDS011;59607;52.130;5.430;2022-07-03T18:30:35;1.63;;;0.30;;
71773;SDS011;59607;52.130;5.430;2022-07-03T18:36:34;1.77;;;0.82;;
71773;SDS011;59607;52.130;5.430;2022-07-03T18:42:06;2.70;;;0.47;;
71773;SDS011;59607;52.130;5.430;2022-07-03T18:48:21;1.17;;;0.37;;
71773;SDS011;59607;52.130;5.430;2022-07-03T19:01:44;1.83;;;0.40;;
71773;SDS011;59607;52.130;5.430;2022-07-03T19:08:02;1.52;;;0.30;;
71773;SDS011;59607;52.130;5.430;2022-07-03T19:14:20;3.40;;;0.40;;
71773;SDS011;59607;52.130;5.430;2022-07-03T19:24:38;2.15;;;1.00;;
71773;SDS011;59607;52.130;5.430;2022-07-03T19:30:52;2.53;;;0.40;;
71773;SDS011;59607;52.130;5.430;2022-07-03T19:37:09;2.77;;;0.60;;
71773;SDS011;59607;52.130;5.430;2022-07-03T19:42:45;0.98;;;0.40;;
71773;SDS011;59607;52.130;5.430;2022-07-03T19:45:12;1.95;;;0.30;;
71773;SDS011;59607;52.130;5.430;2022-07-03T19:51:26;1.80;;;0.50;;
71773;SDS011;59607;52.130;5.430;2022-07-03T19:53:54;2.72;;;0.40;;
71773;SDS011;59607;52.130;5.430;2022-07-03T19:56:20;1.33;;;0.40;;
71773;SDS011;59607;52.130;5.430;2022-07-03T20:01:34;1.15;;;0.30;;
71773;SDS011;59607;52.130;5.430;2022-07-03T20:11:34;3.13;;;0.40;;
71773;SDS011;59607;52.130;5.430;2022-07-03T20:17:47;1.25;;;0.52;;
71773;SDS011;59607;52.130;5.430;2022-07-03T20:23:33;2.35;;;0.47;;
71773;SDS011;59607;52.130;5.430;2022-07-03T20:29:49;1.25;;;0.32;;
71773;SDS011;59607;52.130;5.430;2022-07-03T20:35:32;3.53;;;0.40;;
71773;SDS011;59607;52.130;5.430;2022-07-03T20:41:41;5.22;;;0.52;;
71773;SDS011;59607;52.130;5.430;2022-07-03T20:47:47;2.42;;;0.60;;
71773;SDS011;59607;52.130;5.430;2022-07-03T20:53:54;2.72;;;0.38;;
71773;SDS011;59607;52.130;5.430;2022-07-03T21:00:09;2.90;;;0.52;;
71773;SDS011;59607;52.130;5.430;2022-07-03T21:02:46;1.77;;;0.52;;
71773;SDS011;59607;52.130;5.430;2022-07-03T21:05:15;2.93;;;0.40;;
71773;SDS011;59607;52.130;5.430;2022-07-03T21:07:41;2.15;;;0.40;;
71773;SDS011;59607;52.130;5.430;2022-07-03T21:13:55;1.25;;;0.22;;
71773;SDS011;59607;52.130;5.430;2022-07-03T21:20:20;2.20;;;0.30;;
71773;SDS011;59607;52.130;5.430;2022-07-03T21:22:46;2.28;;;0.47;;
71773;SDS011;59607;52.130;5.430;2022-07-03T21:29:00;3.70;;;0.52;;
71773;SDS011;59607;52.130;5.430;2022-07-03T21:38:10;1.75;;;0.40;;
71773;SDS011;59607;52.130;5.430;2022-07-03T21:48:11;4.75;;;0.32;;
71773;SDS011;59607;52.130;5.430;2022-07-03T21:58:05;2.13;;;0.57;;
71773;SDS011;59607;52.130;5.430;2022-07-03T22:03:43;4.30;;;0.63;;
71773;SDS011;59607;52.130;5.430;2022-07-03T22:17:31;2.13;;;0.57;;
71773;SDS011;59607;52.130;5.430;2022-07-03T22:27:33;1.30;;;0.50;;
71773;SDS011;59607;52.130;5.430;2022-07-03T22:33:46;1.83;;;0.30;;